デンパサール の空港の天気 - METARとTAF

デンパサール国際空港 ( WADD / DPS ) - インドネシア バリ島デンパサール
飛行場実況気象(Metar)
観測時間08/16 23:00 WITA (08/16 15:00 UTC)
風向・風速東南東 5m/s
視程10km以上
天気現象
少しの雲 雲底高度 490m
全天の4割程度の雲 雲底高度 1370m
気温25℃
湿度78%
気圧1011hPa
METARWADD 161500Z 12010KT 9999 FEW016 SCT045 25/21 Q1011 NOSIG
過去の天気等 Google飛行場航空写真 Wunderground天気予報

過去48時間のMETAR

飛行場予報(TAF)
発表時間: 8/16 19:00 WITA (8/16 11:00 UTC)
予報対象時間: 16日20時 WITA ~ 17日20時 WITA
風向・風速東 4m/s
視程10km以上
全天の4割程度の雲 雲底高度 490m
17日7時 WITA ~ 17日9時 WITA に徐々に
風向・風速東南東 8m/s
TAF WADD 161100Z 1612/1712 10008KT 9999 SCT016
BECMG 1623/1701 12015KT